createdAt,value
2023-02-14T00:01:11.257Z,96.40
2023-02-14T00:03:38.910Z,96.40
2023-02-14T00:06:13.370Z,96.60
2023-02-14T00:08:41.318Z,96.40
2023-02-14T00:11:11.457Z,96.40
2023-02-14T00:13:38.861Z,97.00
2023-02-14T00:16:06.059Z,96.90
2023-02-14T00:18:51.796Z,96.70
2023-02-14T00:21:18.791Z,96.40
2023-02-14T00:23:46.019Z,96.70
2023-02-14T00:26:16.141Z,96.90
2023-02-14T00:28:43.433Z,96.60
2023-02-14T00:31:10.815Z,96.70
2023-02-14T00:33:38.128Z,96.80
2023-02-14T00:36:10.137Z,96.80
2023-02-14T00:38:37.252Z,96.90
2023-02-14T00:41:05.257Z,97.20
2023-02-14T00:43:32.245Z,97.30
2023-02-14T00:45:59.372Z,97.00
2023-02-14T00:48:26.540Z,97.00
2023-02-14T00:50:53.493Z,96.90
2023-02-14T00:53:20.712Z,97.00
2023-02-14T00:55:49.629Z,97.10
2023-02-14T00:58:16.573Z,97.30
2023-02-14T01:00:43.528Z,97.60
2023-02-14T01:03:10.565Z,97.20
2023-02-14T01:05:37.762Z,96.60
2023-02-14T01:08:05.269Z,96.30
2023-02-14T01:10:32.628Z,96.10
2023-02-14T01:12:59.875Z,95.90
2023-02-14T01:15:26.884Z,96.20
2023-02-14T01:17:53.871Z,96.40
2023-02-14T01:20:20.810Z,96.70
2023-02-14T01:22:47.859Z,96.90
2023-02-14T01:25:14.801Z,97.00
2023-02-14T01:27:42.057Z,97.30
2023-02-14T01:30:10.011Z,97.60
2023-02-14T01:32:37.235Z,97.30
2023-02-14T01:35:04.880Z,97.50
2023-02-14T01:37:31.927Z,97.60
2023-02-14T01:39:59.377Z,97.60
2023-02-14T01:42:26.893Z,97.60
2023-02-14T01:45:04.435Z,97.70
2023-02-14T01:47:34.963Z,97.00
2023-02-14T01:50:10.469Z,96.30
2023-02-14T01:52:51.544Z,96.40
2023-02-14T01:55:24.087Z,96.80
2023-02-14T01:58:00.067Z,97.40
2023-02-14T02:00:45.910Z,97.70
2023-02-14T02:03:14.339Z,97.80
2023-02-14T02:05:47.371Z,97.60
2023-02-14T02:08:14.985Z,97.90
2023-02-14T02:10:41.928Z,97.80
2023-02-14T02:13:14.914Z,97.70
2023-02-14T02:16:07.862Z,97.80
2023-02-14T02:19:12.480Z,97.90
2023-02-14T02:22:01.149Z,97.90
2023-02-14T02:24:36.184Z,97.80
2023-02-14T02:27:19.421Z,97.60
2023-02-14T02:30:31.080Z,97.40
2023-02-14T02:33:12.992Z,97.50
2023-02-14T02:35:45.925Z,97.30
2023-02-14T02:38:18.976Z,97.10
2023-02-14T02:41:04.239Z,97.00
2023-02-14T02:43:37.228Z,97.10
2023-02-14T02:46:47.602Z,97.30
2023-02-14T02:49:52.721Z,96.80
2023-02-14T02:53:04.190Z,96.90
2023-02-14T02:55:56.964Z,97.10
2023-02-14T02:58:29.534Z,97.10
2023-02-14T03:00:58.529Z,97.30
2023-02-14T03:03:46.516Z,97.20
2023-02-14T03:06:13.562Z,96.40
2023-02-14T03:08:40.560Z,96.30
2023-02-14T03:11:07.760Z,96.60
2023-02-14T03:13:40.648Z,96.70
2023-02-14T03:16:27.303Z,96.60
2023-02-14T03:19:03.250Z,96.30
2023-02-14T03:21:39.570Z,96.50
2023-02-14T03:24:25.712Z,96.70
2023-02-14T03:27:15.191Z,97.40
2023-02-14T03:29:45.315Z,97.50
2023-02-14T03:32:46.882Z,97.60
2023-02-14T03:35:32.746Z,98.00
2023-02-14T03:38:08.751Z,97.50
2023-02-14T03:40:42.609Z,97.00
2023-02-14T03:43:35.874Z,96.90
2023-02-14T03:46:35.729Z,97.00
2023-02-14T03:49:09.391Z,97.50
2023-02-14T03:51:37.815Z,97.90
2023-02-14T03:54:10.652Z,97.70
2023-02-14T03:56:41.139Z,97.60
2023-02-14T03:59:18.512Z,96.90
2023-02-14T04:01:54.814Z,97.00
2023-02-14T04:04:26.175Z,96.70
2023-02-14T04:06:53.679Z,96.80
2023-02-14T04:09:20.724Z,97.30
2023-02-14T04:11:50.599Z,97.50
2023-02-14T04:14:17.944Z,97.80
2023-02-14T04:17:03.577Z,97.90
2023-02-14T04:19:30.628Z,98.00
2023-02-14T04:21:57.723Z,97.70
2023-02-14T04:24:24.766Z,97.70
2023-02-14T04:26:54.529Z,97.90
2023-02-14T04:29:21.624Z,97.60
2023-02-14T04:31:48.905Z,97.90
2023-02-14T04:34:16.032Z,97.70
2023-02-14T04:36:43.018Z,97.30
2023-02-14T04:39:10.011Z,97.30
2023-02-14T04:41:37.061Z,97.30
2023-02-14T04:44:04.213Z,97.00
2023-02-14T04:46:31.195Z,97.00
2023-02-14T04:48:58.201Z,97.20
2023-02-14T04:51:27.537Z,97.10
2023-02-14T04:53:54.657Z,97.50
2023-02-14T04:56:21.798Z,97.50
2023-02-14T04:58:48.741Z,97.90
2023-02-14T05:01:16.051Z,97.90
2023-02-14T05:03:43.045Z,97.90
2023-02-14T05:06:10.083Z,97.70
2023-02-14T05:08:37.178Z,97.40
2023-02-14T05:11:04.240Z,97.20
2023-02-14T05:13:32.294Z,97.10
2023-02-14T05:15:59.984Z,97.20
2023-02-14T05:18:27.473Z,97.20
2023-02-14T05:20:55.330Z,97.20
2023-02-14T05:23:22.993Z,97.10
2023-02-14T05:25:51.981Z,97.00
2023-02-14T05:28:19.952Z,97.10
2023-02-14T05:30:47.485Z,97.00
2023-02-14T05:33:14.486Z,97.00
2023-02-14T05:35:41.500Z,96.90
2023-02-14T05:38:08.686Z,96.80
2023-02-14T05:40:35.796Z,96.70
2023-02-14T05:43:06.020Z,96.80
2023-02-14T05:45:33.220Z,96.70
2023-02-14T05:48:00.829Z,96.80
2023-02-14T05:50:29.006Z,96.40
2023-02-14T05:52:56.367Z,96.00
2023-02-14T05:55:24.841Z,95.90
2023-02-14T05:57:51.800Z,95.80
2023-02-14T06:00:19.551Z,95.90
2023-02-14T06:02:46.596Z,96.30
2023-02-14T06:05:15.075Z,96.40
2023-02-14T06:07:43.772Z,96.60
2023-02-14T06:10:11.012Z,96.70
2023-02-14T06:12:38.108Z,97.40
2023-02-14T06:15:05.462Z,97.40
2023-02-14T06:17:33.545Z,97.40
2023-02-14T06:20:01.052Z,97.80
2023-02-14T06:22:30.530Z,98.00
2023-02-14T06:24:57.746Z,98.00
2023-02-14T06:27:24.744Z,98.10
2023-02-14T06:29:51.822Z,98.20
2023-02-14T06:32:19.165Z,97.90
2023-02-14T06:34:46.188Z,98.00
2023-02-14T06:37:13.283Z,97.30
2023-02-14T06:39:40.438Z,97.10
2023-02-14T06:42:07.839Z,97.30
2023-02-14T06:44:34.786Z,97.60
2023-02-14T06:47:06.795Z,97.60
2023-02-14T06:49:33.794Z,97.70
2023-02-14T06:52:00.785Z,97.90
2023-02-14T06:54:27.884Z,98.00
2023-02-14T06:56:55.032Z,97.90
2023-02-14T06:59:22.652Z,97.80
2023-02-14T07:01:49.994Z,97.40
2023-02-14T07:04:17.964Z,97.80
2023-02-14T07:06:47.830Z,97.60
2023-02-14T07:09:18.452Z,97.40
2023-02-14T07:11:46.709Z,97.60
2023-02-14T07:14:14.293Z,97.30
2023-02-14T07:16:41.338Z,97.20
2023-02-14T07:19:09.508Z,97.70
2023-02-14T07:21:36.711Z,97.60
2023-02-14T07:24:04.478Z,97.50
2023-02-14T07:26:31.472Z,96.80
2023-02-14T07:28:58.644Z,97.30
2023-02-14T07:31:26.052Z,97.50
2023-02-14T07:33:53.424Z,97.00
2023-02-14T07:36:20.471Z,97.00
2023-02-14T07:38:47.478Z,97.10
2023-02-14T07:41:14.734Z,97.10
2023-02-14T07:43:41.712Z,97.00
2023-02-14T07:46:08.752Z,97.20
2023-02-14T07:48:36.075Z,97.10
2023-02-14T07:51:05.822Z,97.10
2023-02-14T07:53:33.027Z,96.80
2023-02-14T07:56:00.015Z,96.80
2023-02-14T07:58:27.024Z,96.50
2023-02-14T08:00:54.932Z,96.50
2023-02-14T08:03:21.924Z,96.50
2023-02-14T08:05:57.479Z,96.20
2023-02-14T08:08:29.768Z,95.80
2023-02-14T08:10:57.864Z,95.70
2023-02-14T08:13:25.010Z,95.80
2023-02-14T08:16:12.810Z,95.60
2023-02-14T08:18:41.678Z,95.60
2023-02-14T08:21:11.505Z,95.80
2023-02-14T08:23:39.270Z,95.50
2023-02-14T08:26:06.536Z,95.30
2023-02-14T08:28:35.134Z,95.50
2023-02-14T08:31:04.380Z,95.40
2023-02-14T08:33:31.635Z,95.40
2023-02-14T08:35:58.668Z,95.50
2023-02-14T08:38:25.733Z,95.80
2023-02-14T08:40:52.930Z,95.90
2023-02-14T08:43:20.334Z,96.00
2023-02-14T08:45:48.658Z,95.90
2023-02-14T08:48:15.654Z,95.70
2023-02-14T08:50:42.904Z,95.80
2023-02-14T08:53:11.953Z,96.10
2023-02-14T08:55:39.652Z,96.30
2023-02-14T08:58:07.631Z,96.20
2023-02-14T09:00:35.091Z,96.00
2023-02-14T09:03:02.387Z,95.90
2023-02-14T09:05:30.662Z,95.70
2023-02-14T09:07:57.756Z,95.30
2023-02-14T09:10:25.853Z,95.50
2023-02-14T09:12:52.932Z,95.80
2023-02-14T09:15:20.147Z,95.40
2023-02-14T09:17:47.536Z,95.20
2023-02-14T09:20:15.934Z,94.50
2023-02-14T09:22:43.636Z,94.70
2023-02-14T09:25:11.508Z,94.80
2023-02-14T09:27:39.206Z,94.60
2023-02-14T09:30:09.604Z,94.70
2023-02-14T09:32:36.674Z,95.10
2023-02-14T09:35:08.492Z,95.50
2023-02-14T09:37:54.329Z,95.40
2023-02-14T09:40:21.671Z,94.80
2023-02-14T09:43:10.073Z,94.70
2023-02-14T09:45:38.562Z,95.10
2023-02-14T09:48:28.111Z,94.90
2023-02-14T09:51:00.248Z,94.90
2023-02-14T09:53:36.296Z,94.90
2023-02-14T09:56:19.651Z,94.70
2023-02-14T09:59:02.133Z,94.40
2023-02-14T10:01:54.755Z,94.00
2023-02-14T10:04:42.770Z,94.30
2023-02-14T10:07:15.804Z,94.20
2023-02-14T10:13:48.870Z,94.30
2023-02-14T10:16:27.108Z,93.20
2023-02-14T10:19:12.401Z,93.30
2023-02-14T10:21:48.716Z,93.30
2023-02-14T10:24:30.202Z,93.30
2023-02-14T10:29:45.495Z,93.20
2023-02-14T10:32:18.858Z,92.80
2023-02-14T10:34:46.112Z,93.10
2023-02-14T10:37:30.911Z,92.60
2023-02-14T10:40:09.823Z,92.30
2023-02-14T10:43:18.361Z,93.10
2023-02-14T10:45:54.384Z,93.20
2023-02-14T10:48:36.705Z,93.70
2023-02-14T10:51:17.473Z,92.90
2023-02-14T10:53:59.324Z,92.90
2023-02-14T10:57:07.321Z,93.00
2023-02-14T10:59:38.873Z,93.00
2023-02-14T11:02:11.093Z,93.00
2023-02-14T11:04:38.604Z,93.40
2023-02-14T11:07:15.733Z,93.40
2023-02-14T11:09:42.936Z,93.00
2023-02-14T11:12:10.497Z,92.50
2023-02-14T11:14:39.689Z,92.70
2023-02-14T11:17:30.012Z,93.10
2023-02-14T11:20:23.094Z,92.60
2023-02-14T11:22:50.700Z,92.90
2023-02-14T11:25:31.927Z,92.00
2023-02-14T11:28:08.545Z,92.30
2023-02-14T11:30:46.681Z,92.20
2023-02-14T11:33:31.007Z,92.30
2023-02-14T11:35:58.668Z,92.20
2023-02-14T11:38:27.917Z,92.60
2023-02-14T11:40:57.457Z,92.50
2023-02-14T11:43:33.579Z,92.10
2023-02-14T11:46:21.566Z,92.30
2023-02-14T11:48:57.885Z,92.00
2023-02-14T11:51:35.640Z,92.00
2023-02-14T11:54:05.901Z,91.80
2023-02-14T11:57:02.106Z,91.90
2023-02-14T11:59:31.946Z,91.50
2023-02-14T12:02:02.941Z,91.10
2023-02-14T12:04:45.693Z,91.30
2023-02-14T12:07:16.787Z,91.40
2023-02-14T12:09:44.503Z,91.70
2023-02-14T12:12:24.048Z,91.10
2023-02-14T12:14:51.303Z,91.10
2023-02-14T12:17:33.852Z,90.90
2023-02-14T12:20:19.698Z,90.90
2023-02-14T12:22:46.539Z,91.00
2023-02-14T12:25:23.006Z,90.70
2023-02-14T12:28:03.769Z,90.90
2023-02-14T12:30:34.034Z,91.30
2023-02-14T12:33:02.923Z,91.40
2023-02-14T12:35:42.371Z,91.30
2023-02-14T12:38:18.367Z,91.20
2023-02-14T12:40:54.524Z,91.20
2023-02-14T12:44:06.841Z,91.10
2023-02-14T12:46:49.301Z,90.60
2023-02-14T12:49:36.259Z,90.90
2023-02-14T12:52:21.889Z,90.70
2023-02-14T12:55:19.869Z,90.20
2023-02-14T12:57:56.687Z,89.70
2023-02-14T13:00:50.203Z,90.30
2023-02-14T13:03:56.373Z,91.00
2023-02-14T13:06:29.512Z,90.70
2023-02-14T13:09:37.823Z,90.60
2023-02-14T13:12:13.470Z,91.20
2023-02-14T13:15:12.107Z,90.60
2023-02-14T13:17:50.878Z,91.00
2023-02-14T13:20:45.682Z,91.00
2023-02-14T13:23:19.226Z,90.60
2023-02-14T13:25:51.963Z,90.60
2023-02-14T13:28:20.341Z,90.40
2023-02-14T13:30:47.763Z,90.30
2023-02-14T13:33:27.186Z,90.30
2023-02-14T13:35:58.482Z,90.20
2023-02-14T13:38:27.298Z,89.30
2023-02-14T13:40:56.861Z,90.20
2023-02-14T13:43:50.783Z,90.10
2023-02-14T13:46:48.481Z,90.20
2023-02-14T13:49:24.380Z,90.10
2023-02-14T13:52:02.916Z,90.40
2023-02-14T13:54:49.014Z,91.00
2023-02-14T13:57:37.561Z,90.20
2023-02-14T14:00:19.483Z,90.90
2023-02-14T14:02:48.832Z,90.60
2023-02-14T14:05:47.668Z,90.70
2023-02-14T14:08:39.629Z,90.70
2023-02-14T14:11:21.375Z,90.90
2023-02-14T14:13:54.918Z,90.70
2023-02-14T14:16:26.871Z,90.60
2023-02-14T14:19:22.202Z,90.70
2023-02-14T14:22:10.849Z,90.80
2023-02-14T14:24:50.997Z,91.30
2023-02-14T14:27:19.990Z,90.90
2023-02-14T14:29:56.988Z,91.60
2023-02-14T14:32:36.403Z,91.60
2023-02-14T14:35:03.357Z,91.10
2023-02-14T14:37:51.898Z,91.00
2023-02-14T14:40:32.372Z,91.20
2023-02-14T14:43:06.678Z,91.00
2023-02-14T14:45:33.884Z,91.00
2023-02-14T14:48:09.935Z,91.30
2023-02-14T14:50:37.376Z,91.40
2023-02-14T14:53:09.623Z,91.30
2023-02-14T14:55:39.632Z,91.40
2023-02-14T14:58:27.466Z,91.20
2023-02-14T15:00:54.529Z,91.40
2023-02-14T15:03:25.556Z,92.10
2023-02-14T15:06:15.438Z,92.50
2023-02-14T15:08:42.706Z,92.40
2023-02-14T15:11:44.909Z,92.30
2023-02-14T15:14:21.273Z,92.30
2023-02-14T15:17:06.789Z,92.60
2023-02-14T15:19:44.297Z,92.90
2023-02-14T15:22:47.492Z,92.90
2023-02-14T15:25:23.655Z,93.10
2023-02-14T15:27:51.236Z,93.20
2023-02-14T15:30:26.756Z,93.70
2023-02-14T15:40:59.521Z,93.70
2023-02-14T15:43:34.081Z,93.80
2023-02-14T15:46:16.083Z,93.80
2023-02-14T15:48:44.592Z,93.90
2023-02-14T15:51:24.754Z,93.90
2023-02-14T15:54:02.797Z,94.00
2023-02-14T15:56:33.631Z,94.00
2023-02-14T15:59:05.592Z,94.50
2023-02-14T16:01:34.693Z,94.40
2023-02-14T16:04:04.283Z,94.30
2023-02-14T16:06:35.016Z,94.30
2023-02-14T16:09:05.508Z,94.40
2023-02-14T16:11:36.132Z,94.50
2023-02-14T16:14:31.590Z,94.70
2023-02-14T16:17:13.225Z,94.90
2023-02-14T16:19:45.707Z,95.10
2023-02-14T16:22:25.132Z,95.20
2023-02-14T16:24:52.095Z,95.20
2023-02-14T16:27:19.172Z,95.40
2023-02-14T16:29:46.216Z,95.40
2023-02-14T16:32:19.115Z,95.50
2023-02-14T16:34:49.496Z,95.50
2023-02-14T16:37:46.581Z,95.70
2023-02-14T16:40:15.775Z,96.00
2023-02-14T16:42:43.807Z,96.00
2023-02-14T16:45:18.369Z,95.80
2023-02-14T16:47:48.867Z,96.00
2023-02-14T16:50:16.619Z,96.00
2023-02-14T16:52:47.859Z,96.20
2023-02-14T16:55:18.076Z,96.00
2023-02-14T16:57:49.939Z,96.00
2023-02-14T17:00:18.054Z,96.20
2023-02-14T17:02:45.231Z,96.30
2023-02-14T17:05:12.323Z,96.50
2023-02-14T17:07:42.941Z,96.60
2023-02-14T17:10:19.625Z,96.60
2023-02-14T17:12:48.971Z,96.50
2023-02-14T17:15:20.372Z,96.60
2023-02-14T17:17:49.368Z,96.70
2023-02-14T17:20:19.613Z,96.70
2023-02-14T17:22:46.722Z,96.80
2023-02-14T17:25:14.389Z,96.70
2023-02-14T17:27:44.190Z,96.80
2023-02-14T17:30:12.772Z,96.90
2023-02-14T17:32:39.822Z,97.00
2023-02-14T17:35:09.170Z,96.90
2023-02-14T17:37:37.352Z,97.00
2023-02-14T17:40:06.079Z,97.20
2023-02-14T17:42:34.410Z,97.20
2023-02-14T17:45:02.067Z,97.20
2023-02-14T17:47:29.890Z,97.20
2023-02-14T17:49:57.443Z,97.30
2023-02-14T17:52:24.800Z,97.30
2023-02-14T17:54:51.996Z,97.40
2023-02-14T17:57:19.040Z,97.40
2023-02-14T17:59:47.015Z,97.30
2023-02-14T18:02:14.058Z,97.40
2023-02-14T18:04:41.155Z,97.40
2023-02-14T21:15:40.256Z,98.10
2023-02-14T21:18:07.770Z,98.30
2023-02-14T21:20:35.655Z,98.10
2023-02-14T21:23:04.505Z,97.90
2023-02-14T21:25:32.572Z,97.70
2023-02-14T21:27:59.514Z,97.50
2023-02-14T21:30:31.028Z,97.60
2023-02-14T21:33:00.473Z,97.50
2023-02-14T21:35:27.463Z,97.30
2023-02-14T21:37:54.460Z,97.40
2023-02-14T21:40:22.654Z,97.40
2023-02-14T21:42:50.704Z,97.20
2023-02-14T21:45:41.821Z,96.90
2023-02-14T21:48:27.348Z,96.60
2023-02-14T21:50:54.344Z,96.70
2023-02-14T21:53:21.389Z,96.70
2023-02-14T21:55:48.539Z,97.00
2023-02-14T21:58:15.583Z,97.50
2023-02-14T22:00:46.731Z,97.40
2023-02-14T22:03:13.782Z,97.60
2023-02-14T22:05:40.715Z,97.40
2023-02-14T22:08:07.913Z,97.40
2023-02-14T22:10:34.862Z,97.60
2023-02-14T22:13:02.779Z,97.40
2023-02-14T22:15:29.722Z,97.10
2023-02-14T22:17:56.769Z,97.00
2023-02-14T22:20:23.814Z,96.90
2023-02-14T22:22:50.808Z,96.80
2023-02-14T22:25:18.009Z,96.90
2023-02-14T22:27:45.001Z,96.90
2023-02-14T22:30:12.335Z,96.90
2023-02-14T22:32:39.450Z,96.90
2023-02-14T22:35:07.012Z,96.90
2023-02-14T22:37:34.084Z,96.70
2023-02-14T22:40:01.005Z,96.30
2023-02-14T22:42:28.124Z,95.90
2023-02-14T22:44:55.196Z,95.70
2023-02-14T22:47:22.140Z,95.50
2023-02-14T22:49:49.909Z,95.10
2023-02-14T22:52:16.959Z,95.00
2023-02-14T22:54:44.051Z,95.00
2023-02-14T22:57:11.044Z,94.90
2023-02-14T22:59:40.170Z,94.90
2023-02-14T23:02:07.343Z,94.90
2023-02-14T23:04:34.334Z,94.90
2023-02-14T23:07:01.379Z,94.90
2023-02-14T23:09:29.090Z,95.00
2023-02-14T23:11:56.068Z,95.10
2023-02-14T23:18:18.986Z,95.20
2023-02-14T23:21:04.794Z,95.10
2023-02-14T23:23:32.506Z,95.00
2023-02-14T23:26:00.677Z,95.10
2023-02-14T23:28:28.854Z,95.20
2023-02-14T23:31:01.409Z,95.10
2023-02-14T23:33:28.482Z,95.00
2023-02-14T23:35:55.474Z,94.80
2023-02-14T23:38:22.671Z,95.20
2023-02-14T23:41:08.475Z,95.30
2023-02-14T23:43:35.405Z,94.80
2023-02-14T23:46:02.792Z,94.40
2023-02-14T23:48:31.038Z,94.40
2023-02-14T23:51:01.279Z,94.30
2023-02-14T23:54:05.829Z,94.30
2023-02-14T23:56:33.592Z,94.90
2023-02-14T23:59:00.587Z,95.80
